sensor_id;sensor_type;location;lat;lon;timestamp;temperature;humidity
995;DHT22;486;48.726;8.964;2022-11-15T08:53:08;9.90;99.90
995;DHT22;486;48.726;8.964;2022-11-15T08:55:56;12.10;99.90
995;DHT22;486;48.726;8.964;2022-11-15T08:58:43;11.90;99.90
995;DHT22;486;48.726;8.964;2022-11-15T09:01:31;12.10;99.90
995;DHT22;486;48.726;8.964;2022-11-15T09:04:18;12.30;99.90
995;DHT22;486;48.726;8.964;2022-11-15T09:07:06;12.40;99.90
995;DHT22;486;48.726;8.964;2022-11-15T09:09:56;12.40;99.90
995;DHT22;486;48.726;8.964;2022-11-15T09:12:43;12.40;99.90
995;DHT22;486;48.726;8.964;2022-11-15T09:15:32;12.30;99.90
995;DHT22;486;48.726;8.964;2022-11-15T09:18:20;12.30;99.90
995;DHT22;486;48.726;8.964;2022-11-15T09:21:09;12.30;99.90
995;DHT22;486;48.726;8.964;2022-11-15T09:23:57;12.30;99.90
995;DHT22;486;48.726;8.964;2022-11-15T09:26:49;12.30;99.90
995;DHT22;486;48.726;8.964;2022-11-15T09:29:37;12.30;99.90
995;DHT22;486;48.726;8.964;2022-11-15T09:32:28;12.30;99.90
995;DHT22;486;48.726;8.964;2022-11-15T09:35:16;12.40;99.90
995;DHT22;486;48.726;8.964;2022-11-15T09:38:04;12.50;99.90
995;DHT22;486;48.726;8.964;2022-11-15T09:40:58;12.70;99.90
995;DHT22;486;48.726;8.964;2022-11-15T09:44:14;12.90;99.90
995;DHT22;486;48.726;8.964;2022-11-15T09:50:43;13.20;99.90
995;DHT22;486;48.726;8.964;2022-11-15T09:53:17;13.30;99.90
995;DHT22;486;48.726;8.964;2022-11-15T09:55:58;13.30;99.90
995;DHT22;486;48.726;8.964;2022-11-15T09:58:33;13.30;99.90
995;DHT22;486;48.726;8.964;2022-11-15T10:01:14;13.40;99.90
995;DHT22;486;48.726;8.964;2022-11-15T10:03:46;13.50;99.90
995;DHT22;486;48.726;8.964;2022-11-15T10:06:23;13.50;99.90
995;DHT22;486;48.726;8.964;2022-11-15T10:08:58;13.60;99.90
995;DHT22;486;48.726;8.964;2022-11-15T10:11:31;13.60;99.90
995;DHT22;486;48.726;8.964;2022-11-15T10:14:04;13.80;99.90
995;DHT22;486;48.726;8.964;2022-11-15T10:20:10;14.10;99.90
995;DHT22;486;48.726;8.964;2022-11-15T10:22:46;14.00;99.90
995;DHT22;486;48.726;8.964;2022-11-15T10:25:19;14.00;99.90
995;DHT22;486;48.726;8.964;2022-11-15T10:27:56;14.00;99.90
995;DHT22;486;48.726;8.964;2022-11-15T10:30:32;14.10;99.90
995;DHT22;486;48.726;8.964;2022-11-15T10:33:26;14.10;99.90
995;DHT22;486;48.726;8.964;2022-11-15T10:36:15;14.10;99.90
995;DHT22;486;48.726;8.964;2022-11-15T10:38:56;14.20;99.90
995;DHT22;486;48.726;8.964;2022-11-15T10:41:36;14.20;99.90
995;DHT22;486;48.726;8.964;2022-11-15T10:44:19;14.10;99.90
995;DHT22;486;48.726;8.964;2022-11-15T10:47:06;14.10;99.90
995;DHT22;486;48.726;8.964;2022-11-15T10:50:00;14.00;99.90
995;DHT22;486;48.726;8.964;2022-11-15T10:52:33;14.00;99.90
995;DHT22;486;48.726;8.964;2022-11-15T10:55:25;14.00;99.90
995;DHT22;486;48.726;8.964;2022-11-15T10:58:04;14.00;99.90
995;DHT22;486;48.726;8.964;2022-11-15T11:00:36;13.90;99.90
995;DHT22;486;48.726;8.964;2022-11-15T11:03:34;14.00;99.90
995;DHT22;486;48.726;8.964;2022-11-15T11:06:09;14.00;99.90
995;DHT22;486;48.726;8.964;2022-11-15T11:08:39;14.00;99.90
995;DHT22;486;48.726;8.964;2022-11-15T11:11:09;14.10;99.90
995;DHT22;486;48.726;8.964;2022-11-15T11:13:39;14.10;99.90
995;DHT22;486;48.726;8.964;2022-11-15T11:16:36;14.10;99.90
995;DHT22;486;48.726;8.964;2022-11-15T11:19:27;14.20;99.90
995;DHT22;486;48.726;8.964;2022-11-15T11:22:15;14.20;99.90
995;DHT22;486;48.726;8.964;2022-11-15T11:24:57;14.20;99.90
995;DHT22;486;48.726;8.964;2022-11-15T11:27:39;14.20;99.90
995;DHT22;486;48.726;8.964;2022-11-15T11:30:16;14.30;99.90
995;DHT22;486;48.726;8.964;2022-11-15T11:32:56;14.30;99.90
995;DHT22;486;48.726;8.964;2022-11-15T11:35:47;14.30;99.90
995;DHT22;486;48.726;8.964;2022-11-15T11:38:49;14.40;99.90
995;DHT22;486;48.726;8.964;2022-11-15T11:41:36;14.40;99.90
995;DHT22;486;48.726;8.964;2022-11-15T11:44:23;14.60;99.90
995;DHT22;486;48.726;8.964;2022-11-15T11:46:59;14.80;99.90
995;DHT22;486;48.726;8.964;2022-11-15T11:49:34;15.00;99.90
995;DHT22;486;48.726;8.964;2022-11-15T11:52:15;15.10;99.90
995;DHT22;486;48.726;8.964;2022-11-15T11:55:00;15.20;99.90
995;DHT22;486;48.726;8.964;2022-11-15T11:57:37;15.30;99.90
995;DHT22;486;48.726;8.964;2022-11-15T12:00:18;15.30;99.90
995;DHT22;486;48.726;8.964;2022-11-15T12:02:55;15.30;99.90
995;DHT22;486;48.726;8.964;2022-11-15T12:05:35;15.10;99.90
995;DHT22;486;48.726;8.964;2022-11-15T12:08:20;15.10;99.90
995;DHT22;486;48.726;8.964;2022-11-15T12:11:04;15.10;99.90
995;DHT22;486;48.726;8.964;2022-11-15T12:13:37;15.00;99.90
995;DHT22;486;48.726;8.964;2022-11-15T12:16:12;14.90;99.90
995;DHT22;486;48.726;8.964;2022-11-15T12:18:47;14.80;99.90
995;DHT22;486;48.726;8.964;2022-11-15T12:21:24;14.80;99.90
995;DHT22;486;48.726;8.964;2022-11-15T12:24:02;14.60;99.90
995;DHT22;486;48.726;8.964;2022-11-15T12:26:41;14.60;99.90
995;DHT22;486;48.726;8.964;2022-11-15T12:29:18;14.60;99.90
995;DHT22;486;48.726;8.964;2022-11-15T12:31:51;14.50;99.90
995;DHT22;486;48.726;8.964;2022-11-15T12:34:42;14.50;99.90
995;DHT22;486;48.726;8.964;2022-11-15T12:37:44;14.50;99.90
995;DHT22;486;48.726;8.964;2022-11-15T12:40:20;14.50;99.90
995;DHT22;486;48.726;8.964;2022-11-15T12:43:37;14.60;99.90
995;DHT22;486;48.726;8.964;2022-11-15T12:46:19;14.60;99.90
995;DHT22;486;48.726;8.964;2022-11-15T12:49:43;14.50;99.90
995;DHT22;486;48.726;8.964;2022-11-15T12:52:15;14.50;99.90
995;DHT22;486;48.726;8.964;2022-11-15T12:55:02;14.40;99.90
995;DHT22;486;48.726;8.964;2022-11-15T12:58:26;14.40;99.90
995;DHT22;486;48.726;8.964;2022-11-15T13:00:56;14.40;99.90
995;DHT22;486;48.726;8.964;2022-11-15T13:03:26;14.50;99.90
995;DHT22;486;48.726;8.964;2022-11-15T13:06:05;14.50;99.90
995;DHT22;486;48.726;8.964;2022-11-15T13:08:44;14.50;99.90
995;DHT22;486;48.726;8.964;2022-11-15T13:14:43;14.60;99.90
995;DHT22;486;48.726;8.964;2022-11-15T13:17:35;14.70;99.90
995;DHT22;486;48.726;8.964;2022-11-15T13:20:19;14.90;99.90
995;DHT22;486;48.726;8.964;2022-11-15T13:22:59;14.80;99.90
995;DHT22;486;48.726;8.964;2022-11-15T13:26:01;14.80;99.90
995;DHT22;486;48.726;8.964;2022-11-15T13:28:44;14.80;99.90
995;DHT22;486;48.726;8.964;2022-11-15T13:31:25;14.80;99.90
995;DHT22;486;48.726;8.964;2022-11-15T13:33:59;14.90;99.90
995;DHT22;486;48.726;8.964;2022-11-15T13:36:31;14.80;99.90
995;DHT22;486;48.726;8.964;2022-11-15T13:39:05;14.70;99.90
995;DHT22;486;48.726;8.964;2022-11-15T13:41:46;14.70;99.90
995;DHT22;486;48.726;8.964;2022-11-15T13:44:20;14.60;99.90
995;DHT22;486;48.726;8.964;2022-11-15T13:47:00;14.60;99.90
995;DHT22;486;48.726;8.964;2022-11-15T13:49:34;14.60;99.90
995;DHT22;486;48.726;8.964;2022-11-15T13:52:06;14.60;99.90
995;DHT22;486;48.726;8.964;2022-11-15T13:54:43;14.60;99.90
995;DHT22;486;48.726;8.964;2022-11-15T13:57:17;14.40;99.90
995;DHT22;486;48.726;8.964;2022-11-15T13:59:50;14.40;99.90
995;DHT22;486;48.726;8.964;2022-11-15T14:02:26;14.30;99.90
995;DHT22;486;48.726;8.964;2022-11-15T14:04:57;14.30;99.90
995;DHT22;486;48.726;8.964;2022-11-15T14:07:29;14.30;99.90
995;DHT22;486;48.726;8.964;2022-11-15T14:10:24;14.20;99.90
995;DHT22;486;48.726;8.964;2022-11-15T14:12:54;14.20;99.90
995;DHT22;486;48.726;8.964;2022-11-15T14:15:29;14.10;99.90
995;DHT22;486;48.726;8.964;2022-11-15T14:17:59;14.20;99.90
995;DHT22;486;48.726;8.964;2022-11-15T14:20:34;14.20;99.90
995;DHT22;486;48.726;8.964;2022-11-15T14:23:05;14.20;99.90
995;DHT22;486;48.726;8.964;2022-11-15T14:25:56;14.30;99.90
995;DHT22;486;48.726;8.964;2022-11-15T14:28:30;14.20;99.90
995;DHT22;486;48.726;8.964;2022-11-15T14:31:10;14.20;99.90
995;DHT22;486;48.726;8.964;2022-11-15T14:33:41;14.30;99.90
995;DHT22;486;48.726;8.964;2022-11-15T14:36:12;14.30;99.90
995;DHT22;486;48.726;8.964;2022-11-15T14:38:43;14.30;99.90
995;DHT22;486;48.726;8.964;2022-11-15T14:41:21;14.30;99.90
995;DHT22;486;48.726;8.964;2022-11-15T14:43:52;14.20;99.90
995;DHT22;486;48.726;8.964;2022-11-15T14:46:21;14.10;99.90
995;DHT22;486;48.726;8.964;2022-11-15T14:48:50;14.00;99.90
995;DHT22;486;48.726;8.964;2022-11-15T14:51:19;13.90;99.90
995;DHT22;486;48.726;8.964;2022-11-15T14:53:49;13.80;99.90
995;DHT22;486;48.726;8.964;2022-11-15T14:56:20;13.80;99.90
995;DHT22;486;48.726;8.964;2022-11-15T14:58:49;13.70;99.90
995;DHT22;486;48.726;8.964;2022-11-15T15:01:23;13.70;99.90
995;DHT22;486;48.726;8.964;2022-11-15T15:03:53;13.60;99.90
995;DHT22;486;48.726;8.964;2022-11-15T15:06:24;13.60;99.90
995;DHT22;486;48.726;8.964;2022-11-15T15:08:53;13.50;99.90
995;DHT22;486;48.726;8.964;2022-11-15T15:11:26;13.50;99.90
995;DHT22;486;48.726;8.964;2022-11-15T15:13:57;13.50;99.90
995;DHT22;486;48.726;8.964;2022-11-15T15:16:27;13.50;99.90
995;DHT22;486;48.726;8.964;2022-11-15T15:18:56;13.40;99.90
995;DHT22;486;48.726;8.964;2022-11-15T15:21:26;13.40;99.90
995;DHT22;486;48.726;8.964;2022-11-15T15:23:56;13.40;99.90
995;DHT22;486;48.726;8.964;2022-11-15T15:26:28;13.40;99.90
995;DHT22;486;48.726;8.964;2022-11-15T15:28:59;13.40;99.90
995;DHT22;486;48.726;8.964;2022-11-15T15:31:28;13.40;99.90
995;DHT22;486;48.726;8.964;2022-11-15T15:33:58;13.40;99.90
995;DHT22;486;48.726;8.964;2022-11-15T15:36:27;13.40;99.90
995;DHT22;486;48.726;8.964;2022-11-15T15:38:56;13.40;99.90
995;DHT22;486;48.726;8.964;2022-11-15T15:41:27;13.30;99.90
995;DHT22;486;48.726;8.964;2022-11-15T15:43:56;13.30;99.90
995;DHT22;486;48.726;8.964;2022-11-15T15:46:25;13.30;99.90
995;DHT22;486;48.726;8.964;2022-11-15T15:48:54;13.30;99.90
995;DHT22;486;48.726;8.964;2022-11-15T15:51:23;13.30;99.90
995;DHT22;486;48.726;8.964;2022-11-15T15:53:52;13.30;99.90
995;DHT22;486;48.726;8.964;2022-11-15T15:56:22;13.30;99.90
995;DHT22;486;48.726;8.964;2022-11-15T15:58:54;13.30;99.90
995;DHT22;486;48.726;8.964;2022-11-15T16:01:23;13.30;99.90
995;DHT22;486;48.726;8.964;2022-11-15T16:03:52;13.20;99.90
995;DHT22;486;48.726;8.964;2022-11-15T16:06:33;13.20;99.90
995;DHT22;486;48.726;8.964;2022-11-15T16:09:05;13.10;99.90
995;DHT22;486;48.726;8.964;2022-11-15T16:11:34;13.00;99.90
995;DHT22;486;48.726;8.964;2022-11-15T16:14:06;13.00;99.90
995;DHT22;486;48.726;8.964;2022-11-15T16:16:36;13.00;99.90
995;DHT22;486;48.726;8.964;2022-11-15T16:19:05;12.90;99.90
995;DHT22;486;48.726;8.964;2022-11-15T16:21:34;12.90;99.90
995;DHT22;486;48.726;8.964;2022-11-15T16:24:03;12.80;99.90
995;DHT22;486;48.726;8.964;2022-11-15T16:26:33;12.80;99.90
995;DHT22;486;48.726;8.964;2022-11-15T16:29:07;12.70;99.90
995;DHT22;486;48.726;8.964;2022-11-15T16:31:36;12.70;99.90
995;DHT22;486;48.726;8.964;2022-11-15T16:34:05;12.70;99.90
995;DHT22;486;48.726;8.964;2022-11-15T16:36:35;12.70;99.90
995;DHT22;486;48.726;8.964;2022-11-15T16:39:04;12.80;99.90
995;DHT22;486;48.726;8.964;2022-11-15T16:41:33;12.80;99.90
995;DHT22;486;48.726;8.964;2022-11-15T16:44:05;12.80;99.90
995;DHT22;486;48.726;8.964;2022-11-15T16:49:11;12.90;99.90
995;DHT22;486;48.726;8.964;2022-11-15T16:51:41;13.00;99.90
995;DHT22;486;48.726;8.964;2022-11-15T16:54:11;13.00;99.90
995;DHT22;486;48.726;8.964;2022-11-15T16:56:40;12.90;99.90
995;DHT22;486;48.726;8.964;2022-11-15T16:59:15;12.90;99.90
995;DHT22;486;48.726;8.964;2022-11-15T17:01:45;12.80;99.90
995;DHT22;486;48.726;8.964;2022-11-15T17:04:16;12.80;99.90
995;DHT22;486;48.726;8.964;2022-11-15T17:06:48;12.90;99.90
995;DHT22;486;48.726;8.964;2022-11-15T17:09:19;12.80;99.90
995;DHT22;486;48.726;8.964;2022-11-15T17:11:49;12.80;99.90
995;DHT22;486;48.726;8.964;2022-11-15T17:14:21;12.70;99.90
995;DHT22;486;48.726;8.964;2022-11-15T17:16:50;12.70;99.90
995;DHT22;486;48.726;8.964;2022-11-15T17:19:20;12.70;99.90
995;DHT22;486;48.726;8.964;2022-11-15T17:21:50;12.60;99.90
995;DHT22;486;48.726;8.964;2022-11-15T17:24:19;12.70;99.90
995;DHT22;486;48.726;8.964;2022-11-15T17:26:48;12.70;99.90
995;DHT22;486;48.726;8.964;2022-11-15T17:29:17;12.60;99.90
995;DHT22;486;48.726;8.964;2022-11-15T17:31:49;12.50;99.90
995;DHT22;486;48.726;8.964;2022-11-15T17:34:18;12.50;99.90
995;DHT22;486;48.726;8.964;2022-11-15T17:36:48;12.50;99.90
995;DHT22;486;48.726;8.964;2022-11-15T17:39:17;12.50;99.90
995;DHT22;486;48.726;8.964;2022-11-15T17:41:48;12.50;99.90
995;DHT22;486;48.726;8.964;2022-11-15T17:44:17;12.50;99.90
995;DHT22;486;48.726;8.964;2022-11-15T17:46:49;12.40;99.90
995;DHT22;486;48.726;8.964;2022-11-15T17:49:18;12.40;99.90
995;DHT22;486;48.726;8.964;2022-11-15T17:51:47;12.40;99.90
995;DHT22;486;48.726;8.964;2022-11-15T17:54:16;12.40;99.90
995;DHT22;486;48.726;8.964;2022-11-15T17:56:45;12.40;99.90
995;DHT22;486;48.726;8.964;2022-11-15T17:59:14;12.40;99.90
995;DHT22;486;48.726;8.964;2022-11-15T18:01:43;12.40;99.90
995;DHT22;486;48.726;8.964;2022-11-15T18:04:14;12.40;99.90
995;DHT22;486;48.726;8.964;2022-11-15T18:06:43;12.40;99.90
995;DHT22;486;48.726;8.964;2022-11-15T18:09:12;12.40;99.90
995;DHT22;486;48.726;8.964;2022-11-15T18:11:41;12.30;99.90
995;DHT22;486;48.726;8.964;2022-11-15T18:14:15;12.30;99.90
995;DHT22;486;48.726;8.964;2022-11-15T18:16:45;12.30;99.90
995;DHT22;486;48.726;8.964;2022-11-15T18:19:17;12.30;99.90
995;DHT22;486;48.726;8.964;2022-11-15T18:21:46;12.30;99.90
995;DHT22;486;48.726;8.964;2022-11-15T18:24:25;12.30;99.90
995;DHT22;486;48.726;8.964;2022-11-15T18:26:54;12.20;99.90
995;DHT22;486;48.726;8.964;2022-11-15T18:29:24;12.20;99.90
995;DHT22;486;48.726;8.964;2022-11-15T18:31:53;12.20;99.90
995;DHT22;486;48.726;8.964;2022-11-15T18:34:26;12.20;99.90
995;DHT22;486;48.726;8.964;2022-11-15T18:36:58;12.10;99.90
995;DHT22;486;48.726;8.964;2022-11-15T18:39:28;12.00;99.90
995;DHT22;486;48.726;8.964;2022-11-15T18:41:57;12.00;99.90
995;DHT22;486;48.726;8.964;2022-11-15T18:44:27;12.00;99.90
995;DHT22;486;48.726;8.964;2022-11-15T18:46:56;11.90;99.90
995;DHT22;486;48.726;8.964;2022-11-15T18:49:28;11.90;99.90
995;DHT22;486;48.726;8.964;2022-11-15T18:51:57;11.90;99.90
995;DHT22;486;48.726;8.964;2022-11-15T18:54:26;12.00;99.90
995;DHT22;486;48.726;8.964;2022-11-15T18:56:55;11.90;99.90
995;DHT22;486;48.726;8.964;2022-11-15T18:59:24;11.90;99.90
995;DHT22;486;48.726;8.964;2022-11-15T19:01:53;12.00;99.90
995;DHT22;486;48.726;8.964;2022-11-15T19:04:22;12.00;99.90
995;DHT22;486;48.726;8.964;2022-11-15T19:06:54;12.00;99.90
995;DHT22;486;48.726;8.964;2022-11-15T19:09:23;12.10;99.90
995;DHT22;486;48.726;8.964;2022-11-15T19:11:57;12.10;99.90
995;DHT22;486;48.726;8.964;2022-11-15T19:14:26;12.00;99.90
995;DHT22;486;48.726;8.964;2022-11-15T19:16:55;12.00;99.90
995;DHT22;486;48.726;8.964;2022-11-15T19:19:25;12.00;99.90
995;DHT22;486;48.726;8.964;2022-11-15T19:21:57;12.10;99.90
995;DHT22;486;48.726;8.964;2022-11-15T19:24:27;12.10;99.90
995;DHT22;486;48.726;8.964;2022-11-15T19:26:57;12.00;99.90
995;DHT22;486;48.726;8.964;2022-11-15T19:29:26;12.00;99.90
995;DHT22;486;48.726;8.964;2022-11-15T19:31:55;11.90;99.90
995;DHT22;486;48.726;8.964;2022-11-15T19:34:24;11.80;99.90
995;DHT22;486;48.726;8.964;2022-11-15T19:36:53;11.70;99.90
995;DHT22;486;48.726;8.964;2022-11-15T19:39:25;11.70;99.90
995;DHT22;486;48.726;8.964;2022-11-15T19:41:54;11.70;99.90
995;DHT22;486;48.726;8.964;2022-11-15T19:44:22;11.80;99.90
995;DHT22;486;48.726;8.964;2022-11-15T19:46:52;11.80;99.90
995;DHT22;486;48.726;8.964;2022-11-15T19:49:20;11.80;99.90
995;DHT22;486;48.726;8.964;2022-11-15T19:51:49;11.80;99.90
995;DHT22;486;48.726;8.964;2022-11-15T19:54:18;11.70;99.90
995;DHT22;486;48.726;8.964;2022-11-15T19:56:50;11.80;99.90
995;DHT22;486;48.726;8.964;2022-11-15T19:59:19;11.80;99.90
995;DHT22;486;48.726;8.964;2022-11-15T20:01:48;11.80;99.90
995;DHT22;486;48.726;8.964;2022-11-15T20:04:17;11.70;99.90
995;DHT22;486;48.726;8.964;2022-11-15T20:06:46;11.50;99.90
995;DHT22;486;48.726;8.964;2022-11-15T20:09:16;11.50;99.90
995;DHT22;486;48.726;8.964;2022-11-15T20:11:45;11.50;99.90
995;DHT22;486;48.726;8.964;2022-11-15T20:14:16;11.50;99.90
995;DHT22;486;48.726;8.964;2022-11-15T20:16:45;11.60;99.90
995;DHT22;486;48.726;8.964;2022-11-15T20:19:14;11.60;99.90
995;DHT22;486;48.726;8.964;2022-11-15T20:21:43;11.50;99.90
995;DHT22;486;48.726;8.964;2022-11-15T20:24:12;11.50;99.90
995;DHT22;486;48.726;8.964;2022-11-15T20:26:41;11.50;99.90
995;DHT22;486;48.726;8.964;2022-11-15T20:29:11;11.40;99.90
995;DHT22;486;48.726;8.964;2022-11-15T20:31:43;11.40;99.90
995;DHT22;486;48.726;8.964;2022-11-15T20:34:12;11.40;99.90
995;DHT22;486;48.726;8.964;2022-11-15T20:36:41;11.50;99.90
995;DHT22;486;48.726;8.964;2022-11-15T20:39:10;11.50;99.90
995;DHT22;486;48.726;8.964;2022-11-15T20:41:39;11.60;99.90
995;DHT22;486;48.726;8.964;2022-11-15T20:44:08;11.60;99.90
995;DHT22;486;48.726;8.964;2022-11-15T20:46:37;11.60;99.90
995;DHT22;486;48.726;8.964;2022-11-15T20:49:08;11.50;99.90
995;DHT22;486;48.726;8.964;2022-11-15T20:51:37;11.60;99.90
995;DHT22;486;48.726;8.964;2022-11-15T20:54:06;11.60;99.90
995;DHT22;486;48.726;8.964;2022-11-15T20:56:36;11.60;99.90
995;DHT22;486;48.726;8.964;2022-11-15T20:59:05;11.60;99.90
995;DHT22;486;48.726;8.964;2022-11-15T21:01:34;11.60;99.90
995;DHT22;486;48.726;8.964;2022-11-15T21:04:03;11.60;99.90
995;DHT22;486;48.726;8.964;2022-11-15T21:06:35;11.70;99.90
995;DHT22;486;48.726;8.964;2022-11-15T21:09:04;11.70;99.90
995;DHT22;486;48.726;8.964;2022-11-15T21:11:45;11.60;99.90
995;DHT22;486;48.726;8.964;2022-11-15T21:14:27;11.60;99.90
995;DHT22;486;48.726;8.964;2022-11-15T21:16:56;11.60;99.90
995;DHT22;486;48.726;8.964;2022-11-15T21:19:25;11.60;99.90
995;DHT22;486;48.726;8.964;2022-11-15T21:21:56;11.60;99.90
995;DHT22;486;48.726;8.964;2022-11-15T21:24:25;11.50;99.90
995;DHT22;486;48.726;8.964;2022-11-15T21:26:54;11.40;99.90
995;DHT22;486;48.726;8.964;2022-11-15T21:29:24;11.40;99.90
995;DHT22;486;48.726;8.964;2022-11-15T21:31:53;11.50;99.90
995;DHT22;486;48.726;8.964;2022-11-15T21:34:22;11.40;99.90
995;DHT22;486;48.726;8.964;2022-11-15T21:36:51;11.40;99.90
995;DHT22;486;48.726;8.964;2022-11-15T21:39:22;11.40;99.90
995;DHT22;486;48.726;8.964;2022-11-15T21:41:51;11.30;99.90
995;DHT22;486;48.726;8.964;2022-11-15T21:44:21;11.30;99.90
995;DHT22;486;48.726;8.964;2022-11-15T21:46:50;11.30;99.90
995;DHT22;486;48.726;8.964;2022-11-15T21:49:19;11.30;99.90
995;DHT22;486;48.726;8.964;2022-11-15T21:51:48;11.20;99.90
995;DHT22;486;48.726;8.964;2022-11-15T21:54:17;11.10;99.90
995;DHT22;486;48.726;8.964;2022-11-15T21:56:48;11.10;99.90
995;DHT22;486;48.726;8.964;2022-11-15T21:59:17;11.10;99.90
995;DHT22;486;48.726;8.964;2022-11-15T22:01:46;11.10;99.90
995;DHT22;486;48.726;8.964;2022-11-15T22:04:28;11.10;99.90
995;DHT22;486;48.726;8.964;2022-11-15T22:06:57;11.00;99.90
995;DHT22;486;48.726;8.964;2022-11-15T22:09:26;11.00;99.90
995;DHT22;486;48.726;8.964;2022-11-15T22:11:57;11.10;99.90
995;DHT22;486;48.726;8.964;2022-11-15T22:14:26;11.10;99.90
995;DHT22;486;48.726;8.964;2022-11-15T22:16:55;11.10;99.90
995;DHT22;486;48.726;8.964;2022-11-15T22:19:24;11.10;99.90
995;DHT22;486;48.726;8.964;2022-11-15T22:21:53;11.20;99.90
995;DHT22;486;48.726;8.964;2022-11-15T22:24:22;11.10;99.90
995;DHT22;486;48.726;8.964;2022-11-15T22:26:51;11.10;99.90
995;DHT22;486;48.726;8.964;2022-11-15T22:29:23;11.10;99.90
995;DHT22;486;48.726;8.964;2022-11-15T22:31:52;11.10;99.90
995;DHT22;486;48.726;8.964;2022-11-15T22:34:21;11.10;99.90
995;DHT22;486;48.726;8.964;2022-11-15T22:36:51;11.00;99.90
995;DHT22;486;48.726;8.964;2022-11-15T22:39:20;10.90;99.90
995;DHT22;486;48.726;8.964;2022-11-15T22:41:49;10.80;99.90
995;DHT22;486;48.726;8.964;2022-11-15T22:44:18;10.80;99.90
995;DHT22;486;48.726;8.964;2022-11-15T22:46:49;10.70;99.90
995;DHT22;486;48.726;8.964;2022-11-15T22:49:18;10.60;99.90
995;DHT22;486;48.726;8.964;2022-11-15T22:51:48;10.60;99.90
995;DHT22;486;48.726;8.964;2022-11-15T22:54:17;10.50;99.90
995;DHT22;486;48.726;8.964;2022-11-15T22:56:46;10.50;99.90
995;DHT22;486;48.726;8.964;2022-11-15T22:59:15;10.40;99.90
995;DHT22;486;48.726;8.964;2022-11-15T23:01:44;10.30;99.90
995;DHT22;486;48.726;8.964;2022-11-15T23:04:18;10.30;99.90
995;DHT22;486;48.726;8.964;2022-11-15T23:06:48;10.30;99.90
995;DHT22;486;48.726;8.964;2022-11-15T23:09:17;10.30;99.90
995;DHT22;486;48.726;8.964;2022-11-15T23:11:46;10.30;99.90
995;DHT22;486;48.726;8.964;2022-11-15T23:14:27;10.20;99.90
995;DHT22;486;48.726;8.964;2022-11-15T23:16:56;10.10;99.90
995;DHT22;486;48.726;8.964;2022-11-15T23:19:28;10.10;99.90
995;DHT22;486;48.726;8.964;2022-11-15T23:21:57;10.00;99.90
995;DHT22;486;48.726;8.964;2022-11-15T23:24:39;10.00;99.90
995;DHT22;486;48.726;8.964;2022-11-15T23:27:08;10.00;99.90
995;DHT22;486;48.726;8.964;2022-11-15T23:29:40;10.00;99.90
995;DHT22;486;48.726;8.964;2022-11-15T23:32:21;9.90;99.90
995;DHT22;486;48.726;8.964;2022-11-15T23:35:06;10.00;99.90
995;DHT22;486;48.726;8.964;2022-11-15T23:37:35;10.00;99.90
995;DHT22;486;48.726;8.964;2022-11-15T23:40:06;10.00;99.90
995;DHT22;486;48.726;8.964;2022-11-15T23:42:36;10.00;99.90
995;DHT22;486;48.726;8.964;2022-11-15T23:45:06;10.00;99.90
995;DHT22;486;48.726;8.964;2022-11-15T23:47:35;9.90;99.90
995;DHT22;486;48.726;8.964;2022-11-15T23:50:07;9.90;99.90
995;DHT22;486;48.726;8.964;2022-11-15T23:52:36;9.90;99.90
995;DHT22;486;48.726;8.964;2022-11-15T23:55:06;9.90;99.90
995;DHT22;486;48.726;8.964;2022-11-15T23:57:36;9.80;99.90
